Latest Weather Observations for Cloncurry

IDQ60801

Issued at 6:02 pm EST Sunday 14 February 2016 (issued every 30 minutes, with the page automatically refreshed every 10 minutes)

About weather observations | Map of weather stations | Latest weather observations for QLD | Other Formats
Station Details ID: 029141 Name: CLONCURRY AIRPORT Lat: -20.67 Lon: 140.50 Height: 186.0 m
Data from the previous 72 hours. | See also: Recent months at Cloncurry
Date/Time
EST
Temp
°C
App
Temp
°C
Dew
Point
Rel
Hum
%
Delta-T
°C
Wind Press
QNH
hPa
Press
MSL
hPa
Rain
since 9 am
mm
Dir
 
Spd
km/h
Gust
km/h
Spd
kts
Gust
kts
14/06:00pm 40.0 36.1 5.2 12 19.4 SE 15 24 8 13 1005.4 1004.0 0.0
14/05:30pm 40.3 36.0 5.4 12 19.5 ESE 17 24 9 13 1005.2 1003.8 0.0
14/05:00pm 39.9 35.0 5.1 12 19.3 ESE 20 32 11 17 1005.1 1003.7 0.0
14/04:30pm 40.5 35.7 5.6 12 19.5 SSE 20 32 11 17 1005.2 1003.8 0.0
14/04:00pm 40.7 36.5 5.7 12 19.7 S 17 26 9 14 1005.3 1003.9 0.0
14/03:30pm 40.6 36.1 6.8 13 19.2 E 20 35 11 19 1005.5 1004.1 0.0
14/03:00pm 40.5 36.2 7.8 14 18.9 ENE 20 32 11 17 1005.8 1004.4 0.0
14/02:30pm 40.0 36.3 6.4 13 19.0 E 15 32 8 17 1006.2 1004.8 0.0
14/02:00pm 40.4 36.4 6.7 13 19.2 SE 17 26 9 14 1006.5 1005.1 0.0
14/01:30pm 39.2 35.0 5.7 13 18.6 SE 17 28 9 15 1006.8 1005.4 0.0
14/01:00pm 39.3 35.0 6.9 14 18.4 E 19 28 10 15 1007.2 1005.8 0.0
14/12:30pm 38.4 35.7 7.2 15 17.7 E 11 19 6 10 1007.6 1006.2 0.0
14/12:00pm 38.2 35.3 8.0 16 17.3 ENE 13 20 7 11 1008.1 1006.6 0.0
14/11:30am 37.9 35.7 7.7 16 17.2 NNE 9 20 5 11 1008.4 1006.9 0.0
14/11:00am 37.7 35.7 8.5 17 16.9 NW 9 15 5 8 1008.6 1007.2 0.0
14/10:30am 36.9 35.1 9.5 19 16.0 NNW 9 15 5 8 1009.0 1007.6 0.0
14/10:00am 36.2 34.8 8.9 19 15.7 S 6 11 3 6 1009.2 1007.8 0.0
14/09:30am 34.7 33.4 9.9 22 14.4 S 7 13 4 7 1009.4 1008.0 0.0
14/09:00am 33.5 32.1 9.5 23 13.8 S 7 11 4 6 1009.3 1007.9 0.0
14/08:30am 31.8 30.3 10.5 27 12.3 S 9 11 5 6 1009.2 1007.8 0.0
14/08:00am 29.7 28.5 11.7 33 10.5 S 9 11 5 6 1009.2 1007.8 0.0
14/07:30am 27.8 26.8 12.2 38 9.1 S 9 11 5 6 1009.0 1007.6 0.0
14/07:00am 26.1 25.5 12.2 42 8.1 S 7 9 4 5 1008.6 1007.2 0.0
14/06:30am 24.3 23.5 12.9 49 6.6 ENE 9 11 5 6 1008.2 1006.7 0.0
14/06:00am 24.1 23.0 13.0 50 6.5 ENE 11 11 6 6 1007.8 1006.4 0.0
14/05:30am 24.5 24.3 13.1 49 6.7 ENE 6 6 3 3 1007.5 1006.1 0.0
14/05:00am 25.1 24.9 13.0 47 7.1 ENE 6 7 3 4 1007.4 1006.0 0.0
14/04:30am 24.7 24.5 13.6 50 6.5 ENE 7 9 4 5 1007.1 1005.7 0.0
14/04:00am 27.0 26.5 11.9 39 8.8 ENE 6 7 3 4 1006.9 1005.5 0.0
14/03:30am 27.4 26.9 12.2 39 8.9 ENE 6 7 3 4 1007.0 1005.6 0.0
14/03:00am 28.4 27.9 11.9 36 9.6 ENE 6 9 3 5 1007.0 1005.6 0.0
14/02:30am 27.5 27.0 11.9 38 9.1 ENE 6 11 3 6 1007.2 1005.8 0.0
14/02:00am 27.8 27.0 11.8 37 9.3 ENE 7 11 4 6 1007.3 1005.9 0.0
14/01:30am 28.0 27.0 12.4 38 9.2 ENE 9 11 5 6 1007.5 1006.1 0.0
14/01:00am 29.2 29.9 12.2 35 10.0 CALM 0 0 0 0 1007.6 1006.2 0.0
14/12:30am 29.7 30.1 11.2 31 10.7 CALM 0 0 0 0 1007.7 1006.3 0.0
14/12:00am 29.5 29.9 11.1 32 10.7 CALM 0 0 0 0 1008.0 1006.5 0.0
 
Date/Time
EST
Temp
°C
App
Temp
°C
Dew
Point
Rel
Hum
%
Delta-T
°C
Wind Press
QNH
hPa
Press
MSL
hPa
Rain
since 9 am
mm
Dir
 
Spd
km/h
Gust
km/h
Spd
kts
Gust
kts
13/11:30pm 29.7 29.7 9.8 29 11.3 CALM 0 0 0 0 1008.1 1006.6 0.0
13/11:00pm 30.9 29.7 10.3 28 11.9 ENE 7 7 4 4 1008.3 1006.8 0.0
13/10:30pm 31.4 31.2 9.0 25 12.6 CALM 0 0 0 0 1008.2 1006.7 0.0
13/10:00pm 33.1 31.6 8.5 22 13.9 ENE 6 7 3 4 1007.8 1006.4 0.0
13/09:30pm 33.4 31.6 8.1 21 14.2 ENE 7 7 4 4 1007.5 1006.1 0.0
13/09:00pm 34.0 31.8 7.9 20 14.7 ENE 9 11 5 6 1007.3 1005.9 0.0
13/08:30pm 35.1 32.4 7.2 18 15.6 ENE 11 15 6 8 1007.0 1005.6 0.0
13/08:00pm 35.7 33.5 7.7 18 15.8 SSE 9 17 5 9 1006.5 1005.1 0.0
13/07:30pm 37.1 35.1 7.1 16 16.9 S 7 9 4 5 1005.9 1004.5 0.0
13/07:00pm 38.0 35.2 6.9 15 17.6 S 11 13 6 7 1005.8 1004.4 0.0
13/06:30pm 38.8 36.3 6.5 14 18.2 SE 9 17 5 9 1005.7 1004.3 0.0
13/06:00pm 39.0 35.0 6.7 14 18.3 SSE 17 24 9 13 1005.6 1004.2 0.0
13/05:30pm 39.3 35.0 6.9 14 18.4 SE 19 26 10 14 1005.6 1004.2 0.0
13/05:00pm 39.8 34.6 7.3 14 18.6 ESE 24 33 13 18 1005.7 1004.3 0.0
13/04:30pm 39.9 35.1 7.4 14 18.6 SE 22 35 12 19 1005.8 1004.4 0.0
13/04:00pm 39.9 34.9 6.3 13 19.0 SE 22 44 12 24 1005.9 1004.5 0.0
13/03:30pm 39.0 34.6 6.7 14 18.2 SE 19 28 10 15 1006.2 1004.8 0.0
13/03:00pm 39.9 34.5 6.3 13 19.0 SE 24 35 13 19 1006.5 1005.1 0.0
13/02:30pm 39.8 34.5 8.3 15 18.3 ESE 26 43 14 23 1006.8 1005.4 0.0
13/02:00pm 39.4 35.9 8.9 16 17.8 ESE 17 28 9 15 1007.1 1005.7 0.0
13/01:30pm 38.3 35.1 9.8 18 16.8 SE 17 30 9 16 1007.7 1006.3 0.0
13/01:00pm 37.7 34.5 10.1 19 16.3 E 17 26 9 14 1008.3 1006.8 0.0
13/12:30pm 37.1 34.2 9.6 19 16.1 ENE 15 24 8 13 1008.8 1007.4 0.0
13/12:00pm 36.9 35.5 11.0 21 15.5 NE 9 24 5 13 1009.2 1007.8 0.0
13/11:30am 35.5 34.0 10.5 22 14.7 ENE 9 20 5 11 1009.7 1008.3 0.0
13/11:00am 35.8 33.6 10.8 22 14.8 E 13 24 7 13 1010.0 1008.6 0.0
13/10:30am 35.0 32.8 10.8 23 14.3 ENE 13 19 7 10 1010.2 1008.8 0.0
13/10:00am 34.5 32.4 11.0 24 13.9 ENE 13 19 7 10 1010.4 1009.0 0.0
13/09:30am 33.5 31.1 11.4 26 13.1 NE 15 20 8 11 1010.5 1009.1 0.0
13/09:00am 33.2 31.6 11.7 27 12.8 E 11 15 6 8 1010.4 1009.0 0.0
13/08:30am 31.6 29.4 10.9 28 12.0 ESE 13 17 7 9 1010.4 1009.0 0.0
13/08:00am 29.2 28.0 11.7 34 10.2 ESE 9 11 5 6 1010.2 1008.8 0.0
13/07:30am 27.1 26.0 12.0 39 8.8 ESE 9 11 5 6 1010.0 1008.6 0.0
13/07:00am 24.9 24.3 13.5 49 6.7 ESE 9 9 5 5 1009.6 1008.2 0.0
13/06:30am 23.6 23.4 12.9 51 6.2 ESE 6 9 3 5 1009.3 1007.9 0.0
13/06:00am 24.1 23.4 13.3 51 6.3 ESE 9 11 5 6 1008.9 1007.5 0.0
13/05:30am 24.6 24.2 12.9 48 6.8 ESE 7 9 4 5 1008.6 1007.2 0.0
13/05:00am 25.1 23.6 12.0 44 7.6 ESE 11 11 6 6 1008.4 1006.9 0.0
13/04:30am 24.8 24.1 12.1 45 7.3 ESE 7 9 4 5 1008.1 1006.6 0.0
13/04:00am 26.6 25.6 11.1 38 8.9 ESE 7 9 4 5 1008.0 1006.5 0.0
13/03:30am 26.0 25.3 11.4 40 8.4 ESE 6 7 3 4 1008.0 1006.5 0.0
13/03:00am 26.3 26.5 10.5 37 8.9 CALM 0 2 0 1 1008.0 1006.5 0.0
13/02:30am 28.7 27.6 9.9 31 10.6 ESE 6 9 3 5 1008.3 1006.8 0.0
13/02:00am 29.2 27.5 9.9 30 11.0 ESE 9 11 5 6 1008.5 1007.0 0.0
13/01:30am 29.8 28.1 9.9 29 11.3 ESE 9 13 5 7 1008.6 1007.2 0.0
13/01:00am 28.8 27.0 10.9 33 10.3 ESE 11 13 6 7 1008.7 1007.3 0.0
13/12:30am 27.5 26.6 10.7 35 9.6 ESE 6 9 3 5 1008.8 1007.4 0.0
13/12:00am 29.4 28.3 10.5 31 10.8 ESE 7 9 4 5 1008.8 1007.4 0.0
 
Date/Time
EST
Temp
°C
App
Temp
°C
Dew
Point
Rel
Hum
%
Delta-T
°C
Wind Press
QNH
hPa
Press
MSL
hPa
Rain
since 9 am
mm
Dir
 
Spd
km/h
Gust
km/h
Spd
kts
Gust
kts
12/11:30pm 30.4 28.3 9.8 28 11.7 ESE 11 11 6 6 1008.9 1007.5 0.0
12/11:00pm 30.5 28.7 9.4 27 12.0 ESE 9 11 5 6 1008.8 1007.4 0.0
12/10:30pm 32.4 30.2 9.2 24 13.2 ESE 11 13 6 7 1008.6 1007.2 0.0
12/10:00pm 32.1 30.6 9.0 24 13.1 ESE 7 9 4 5 1008.4 1006.9 0.0
12/09:30pm 32.7 29.7 7.5 21 14.0 ESE 13 15 7 8 1008.1 1006.6 0.0
12/09:00pm 33.8 30.8 6.2 18 15.1 E 11 13 6 7 1007.5 1006.1 0.0
12/08:30pm 35.4 31.2 5.8 16 16.2 ESE 17 19 9 10 1007.3 1005.9 0.0
12/08:00pm 36.5 32.3 5.7 15 17.0 SE 17 24 9 13 1007.1 1005.7 0.0
12/07:30pm 37.3 33.4 5.3 14 17.5 SE 15 20 8 11 1006.6 1005.2 0.0
12/07:00pm 38.0 33.8 5.9 14 17.9 ESE 17 22 9 12 1006.2 1004.8 0.0
12/06:30pm 39.1 33.9 5.7 13 18.6 ESE 22 30 12 16 1006.1 1004.7 0.0
12/06:00pm 39.2 33.7 5.7 13 18.7 SSE 24 35 13 19 1005.9 1004.5 0.0
12/05:30pm 39.5 34.6 7.1 14 18.4 ESE 22 30 12 16 1005.8 1004.4 0.0
12/05:00pm 39.3 34.8 6.9 14 18.4 ESE 20 30 11 16 1005.8 1004.4 0.0
12/04:30pm 39.0 34.3 7.7 15 17.9 SE 22 33 12 18 1006.1 1004.7 0.0
12/04:00pm 38.9 34.7 7.6 15 17.9 SSW 19 28 10 15 1006.2 1004.8 0.0
12/03:30pm 38.9 35.0 8.5 16 17.6 SE 19 32 10 17 1006.7 1005.3 0.0
12/03:00pm 39.0 34.5 8.6 16 17.7 ESE 22 43 12 23 1007.0 1005.6 0.0
12/02:30pm 39.0 33.1 7.7 15 17.9 ESE 28 44 15 24 1007.5 1006.1 0.0
12/02:24pm 38.9 33.0 7.6 15 17.9 SE 28 46 15 25 1007.6 1006.2 0.0
12/02:16pm 38.9 32.6 7.6 15 17.9 SE 30 46 16 25 1007.7 1006.3 0.0
12/02:00pm 38.3 33.5 9.0 17 17.1 SE 24 35 13 19 1008.0 1006.5 0.0
12/01:30pm 38.0 33.3 7.8 16 17.2 SSE 22 33 12 18 1008.4 1006.9 0.0
12/01:00pm 37.0 33.3 7.9 17 16.6 SE 17 24 9 13 1008.9 1007.5 0.0
12/12:30pm 36.6 34.9 10.0 20 15.6 SSE 9 15 5 8 1009.4 1008.0 0.0
12/12:00pm 35.4 33.5 10.4 22 14.7 NE 11 24 6 13 1009.8 1008.4 0.0
12/11:30am 35.1 32.9 10.9 23 14.3 NE 13 20 7 11 1010.2 1008.8 0.0
12/11:00am 34.4 32.8 12.7 27 13.1 ENE 13 19 7 10 1010.5 1009.1 0.0
12/10:30am 33.7 32.1 11.5 26 13.2 E 11 19 6 10 1010.9 1009.5 0.0
12/10:00am 33.5 32.2 12.5 28 12.6 ENE 11 17 6 9 1011.1 1009.7 0.0
12/09:30am 32.9 31.4 12.0 28 12.4 E 11 17 6 9 1011.2 1009.8 0.0
12/09:00am 31.9 30.2 11.1 28 12.2 E 11 17 6 9 1011.2 1009.8 0.0
12/08:30am 30.6 29.6 11.1 30 11.3 ENE 7 9 4 5 1011.1 1009.7 0.0
12/08:00am 28.7 27.8 12.6 37 9.5 ENE 9 11 5 6 1011.1 1009.7 0.0
12/07:30am 26.3 26.0 13.4 45 7.6 ENE 7 9 4 5 1010.8 1009.4 0.0
12/07:00am 24.0 24.0 14.1 54 5.9 ENE 7 9 4 5 1010.4 1009.0 0.0
12/06:30am 23.8 23.7 13.4 52 6.1 ENE 6 9 3 5 1009.9 1008.5 0.0
12/06:00am 24.7 24.6 13.9 51 6.4 ENE 7 9 4 5 1009.5 1008.1 0.0
12/05:30am 23.2 23.3 13.9 56 5.5 ENE 6 6 3 3 1009.1 1007.7 0.0
12/05:00am 24.2 24.1 14.0 53 6.1 ENE 7 7 4 4 1009.2 1007.8 0.0
12/04:30am 24.1 24.1 13.6 52 6.2 ENE 6 7 3 4 1009.1 1007.7 0.0
12/04:00am 24.2 25.2 13.1 50 6.5 CALM 0 0 0 0 1009.1 1007.7 0.0
12/03:30am 24.5 24.1 12.5 47 6.9 ENE 6 7 3 4 1009.1 1007.7 0.0
12/03:00am 25.1 25.0 13.3 48 7.0 ENE 6 7 3 4 1009.1 1007.7 0.0
12/02:30am 26.0 25.7 12.8 44 7.7 ENE 6 9 3 5 1009.0 1007.6 0.0
12/02:00am 25.8 25.5 12.6 44 7.7 ENE 6 6 3 3 1008.9 1007.5 0.0
12/01:30am 25.9 25.3 12.4 43 7.9 ENE 7 9 4 5 1008.9 1007.5 0.0
12/01:00am 26.1 25.8 11.5 40 8.4 ENE 4 9 2 5 1009.1 1007.7 0.0
12/12:30am 27.3 27.0 10.1 34 9.7 ENE 2 6 1 3 1009.0 1007.6 0.0
12/12:00am 28.6 27.1 9.3 30 10.8 ENE 7 9 4 5 1009.1 1007.7 0.0
 
Date/Time
EST
Temp
°C
App
Temp
°C
Dew
Point
Rel
Hum
%
Delta-T
°C
Wind Press
QNH
hPa
Press
MSL
hPa
Rain
since 9 am
mm
Dir
 
Spd
km/h
Gust
km/h
Spd
kts
Gust
kts
11/11:30pm 28.5 27.3 9.7 31 10.6 ENE 6 9 3 5 1009.3 1007.9 0.0
11/11:00pm 27.8 27.0 11.8 37 9.3 ENE 7 11 4 6 1009.2 1007.8 0.0
11/10:30pm 29.7 28.4 9.3 28 11.5 ENE 6 7 3 4 1008.8 1007.4 0.0
11/10:00pm 30.1 28.7 9.6 28 11.6 ENE 7 9 4 5 1008.6 1007.2 0.0
11/09:30pm 30.9 29.5 9.7 27 12.1 ENE 7 9 4 5 1008.4 1006.9 0.0
11/09:00pm 31.1 29.4 9.9 27 12.1 ENE 9 11 5 6 1008.1 1006.6 0.0
11/08:30pm 32.2 30.2 10.3 26 12.7 ENE 11 13 6 7 1007.6 1006.2 0.0
11/08:00pm 33.1 31.2 10.4 25 13.2 ENE 11 15 6 8 1007.4 1006.0 0.0
11/07:30pm 34.3 32.3 10.2 23 14.0 ENE 11 15 6 8 1007.0 1005.6 0.0
11/07:00pm 35.7 32.5 10.0 21 15.1 E 17 20 9 11 1006.7 1005.3 0.0
11/06:30pm 36.6 33.2 9.2 19 15.9 E 17 22 9 12 1006.4 1005.0 0.0

Other Formats:

Comma delimited format used in spreadsheet applications
http://www.bom.gov.au/fwo/IDQ60801/IDQ60801.94335.axf

JavaScript Object Notation format (JSON) in row-major order
http://www.bom.gov.au/fwo/IDQ60801/IDQ60801.94335.json